createdAt,value
2019-06-07T00:02:18.840Z,19.80
2019-06-07T00:04:48.525Z,19.80
2019-06-07T00:07:21.817Z,19.80
2019-06-07T00:09:49.187Z,19.80
2019-06-07T00:12:21.553Z,19.90
2019-06-07T00:14:50.004Z,19.90
2019-06-07T00:17:20.267Z,19.90
2019-06-07T00:19:50.182Z,19.90
2019-06-07T00:22:32.356Z,19.90
2019-06-07T00:24:51.225Z,19.90
2019-06-07T00:27:22.626Z,19.90
2019-06-07T00:29:51.877Z,19.80
2019-06-07T00:32:40.338Z,19.80
2019-06-07T00:35:11.897Z,19.80
2019-06-07T00:37:41.535Z,19.70
2019-06-07T00:40:17.957Z,19.70
2019-06-07T00:42:43.037Z,19.70
2019-06-07T00:45:17.881Z,19.70
2019-06-07T00:47:44.174Z,19.70
2019-06-07T00:50:16.196Z,19.60
2019-06-07T00:55:18.121Z,19.50
2019-06-07T00:57:47.870Z,19.40
2019-06-07T01:00:22.337Z,19.40
2019-06-07T01:02:49.022Z,19.30
2019-06-07T01:05:22.689Z,19.20
2019-06-07T01:07:49.975Z,19.20
2019-06-07T01:10:46.293Z,19.10
2019-06-07T01:12:50.888Z,18.90
2019-06-07T01:15:28.813Z,18.90
2019-06-07T01:20:26.963Z,18.80
2019-06-07T01:22:56.650Z,18.70
2019-06-07T01:25:26.561Z,18.70
2019-06-07T01:27:57.213Z,18.60
2019-06-07T01:30:29.068Z,18.50
2019-06-07T01:32:58.265Z,18.50
2019-06-07T01:35:29.951Z,18.60
2019-06-07T01:37:58.890Z,18.50
2019-06-07T01:40:32.258Z,18.50
2019-06-07T01:42:59.563Z,18.40
2019-06-07T01:45:31.075Z,18.30
2019-06-07T01:48:00.428Z,18.20
2019-06-07T01:50:29.921Z,18.20
2019-06-07T01:52:59.319Z,18.20
2019-06-07T01:55:32.239Z,18.10
2019-06-07T01:57:59.980Z,18.00
2019-06-07T02:00:32.537Z,18.00
2019-06-07T02:03:01.662Z,18.00
2019-06-07T02:05:32.450Z,17.90
2019-06-07T02:08:02.111Z,17.80
2019-06-07T02:10:33.623Z,17.80
2019-06-07T02:13:02.727Z,17.80
2019-06-07T02:15:51.229Z,17.80
2019-06-07T02:18:23.338Z,17.60
2019-06-07T02:20:52.957Z,17.70
2019-06-07T02:23:24.030Z,17.70
2019-06-07T02:25:53.613Z,17.70
2019-06-07T02:28:32.090Z,17.60
2019-06-07T02:30:59.896Z,17.60
2019-06-07T02:33:28.962Z,17.50
2019-06-07T02:35:56.543Z,17.50
2019-06-07T02:38:29.678Z,17.50
2019-06-07T02:40:57.084Z,17.40
2019-06-07T02:43:28.213Z,17.30
2019-06-07T02:46:21.362Z,17.30
2019-06-07T02:48:35.367Z,17.30
2019-06-07T02:51:01.502Z,17.40
2019-06-07T02:53:38.337Z,17.40
2019-06-07T02:58:38.399Z,17.30
2019-06-07T03:01:09.005Z,17.30
2019-06-07T03:03:39.439Z,17.30
2019-06-07T03:06:06.758Z,17.20
2019-06-07T03:08:38.288Z,17.20
2019-06-07T03:11:08.318Z,17.20
2019-06-07T03:13:41.015Z,17.30
2019-06-07T03:16:12.320Z,17.30
2019-06-07T03:19:04.353Z,17.30
2019-06-07T03:21:36.991Z,17.40
2019-06-07T03:24:06.970Z,17.50
2019-06-07T03:27:29.121Z,17.60
2019-06-07T03:29:07.827Z,17.60
2019-06-07T03:31:41.547Z,17.70
2019-06-07T03:34:08.379Z,17.70
2019-06-07T03:36:40.090Z,17.80
2019-06-07T03:39:09.118Z,17.90
2019-06-07T03:41:46.318Z,17.80
2019-06-07T03:44:09.605Z,17.90
2019-06-07T03:46:41.465Z,18.00
2019-06-07T03:49:10.226Z,18.00
2019-06-07T03:51:40.985Z,18.10
2019-06-07T03:54:10.511Z,18.10
2019-06-07T03:56:41.060Z,18.20
2019-06-07T03:59:10.843Z,18.10
2019-06-07T04:01:41.253Z,18.10
2019-06-07T04:04:10.871Z,18.20
2019-06-07T04:06:42.475Z,18.20
2019-06-07T04:09:11.543Z,18.20
2019-06-07T04:11:41.033Z,18.20
2019-06-07T04:14:10.533Z,18.30
2019-06-07T04:16:43.643Z,18.20
2019-06-07T04:19:11.282Z,18.10
2019-06-07T04:21:42.829Z,18.30
2019-06-07T04:24:12.142Z,18.40
2019-06-07T04:26:43.758Z,18.30
2019-06-07T04:31:43.914Z,18.30
2019-06-07T04:34:13.238Z,18.40
2019-06-07T04:36:56.276Z,18.40
2019-06-07T04:39:15.121Z,18.50
2019-06-07T04:41:46.065Z,18.60
2019-06-07T04:44:17.910Z,18.70
2019-06-07T04:46:49.731Z,18.80
2019-06-07T04:49:21.135Z,18.80
2019-06-07T04:51:51.973Z,18.70
2019-06-07T04:54:21.497Z,18.70
2019-06-07T04:56:50.893Z,18.70
2019-06-07T05:00:00.828Z,18.80
2019-06-07T05:01:51.637Z,18.90
2019-06-07T05:04:21.870Z,19.00
2019-06-07T05:06:51.369Z,19.00
2019-06-07T05:09:20.922Z,18.90
2019-06-07T05:11:50.456Z,19.00
2019-06-07T05:14:19.882Z,19.10
2019-06-07T05:16:49.454Z,19.20
2019-06-07T05:19:19.029Z,19.20
2019-06-07T05:22:02.474Z,19.30
2019-06-07T05:24:19.905Z,19.40
2019-06-07T05:26:49.380Z,19.50
2019-06-07T05:29:18.854Z,19.60
2019-06-07T05:31:48.537Z,19.70
2019-06-07T05:34:17.965Z,19.80
2019-06-07T05:37:08.489Z,19.90
2019-06-07T05:39:18.554Z,19.90
2019-06-07T05:41:48.007Z,19.90
2019-06-07T05:44:17.391Z,20.00
2019-06-07T05:46:47.604Z,20.10
2019-06-07T05:49:17.335Z,20.10
2019-06-07T05:51:46.746Z,20.10
2019-06-07T05:54:16.272Z,20.10
2019-06-07T05:56:45.807Z,20.10
2019-06-07T05:59:15.243Z,20.20
2019-06-07T06:01:56.283Z,20.50
2019-06-07T06:04:15.889Z,20.60
2019-06-07T06:06:47.303Z,20.70
2019-06-07T06:09:16.505Z,20.70
2019-06-07T06:11:59.441Z,20.60
2019-06-07T06:14:17.633Z,20.70
2019-06-07T06:16:49.753Z,20.50
2019-06-07T06:19:18.276Z,20.60
2019-06-07T06:21:48.698Z,20.60
2019-06-07T06:24:18.844Z,20.80
2019-06-07T06:26:52.181Z,20.90
2019-06-07T06:29:19.414Z,20.90
2019-06-07T06:32:39.406Z,21.10
2019-06-07T06:34:20.029Z,21.20
2019-06-07T06:36:50.277Z,21.20
2019-06-07T06:39:20.205Z,21.40
2019-06-07T06:42:00.843Z,21.20
2019-06-07T06:44:23.968Z,21.30
2019-06-07T06:46:58.338Z,21.50
2019-06-07T06:49:24.741Z,21.60
2019-06-07T06:51:58.169Z,21.70
2019-06-07T06:54:40.058Z,21.70
2019-06-07T06:57:18.066Z,21.80
2019-06-07T06:59:39.627Z,21.70
2019-06-07T07:02:02.133Z,21.90
2019-06-07T07:04:32.082Z,21.90
2019-06-07T07:07:01.683Z,22.00
2019-06-07T07:09:31.702Z,22.00
2019-06-07T07:12:11.661Z,22.10
2019-06-07T07:14:32.355Z,22.20
2019-06-07T07:17:01.837Z,22.30
2019-06-07T07:19:31.354Z,22.40
2019-06-07T07:22:01.192Z,22.40
2019-06-07T07:24:31.018Z,22.50
2019-06-07T07:27:00.511Z,22.60
2019-06-07T07:29:29.993Z,22.60
2019-06-07T07:31:59.526Z,22.70
2019-06-07T07:34:35.521Z,22.80
2019-06-07T07:37:00.199Z,22.80
2019-06-07T07:39:29.638Z,22.90
2019-06-07T07:42:17.414Z,23.00
2019-06-07T07:44:30.362Z,23.00
2019-06-07T07:46:59.786Z,23.20
2019-06-07T07:49:29.522Z,23.20
2019-06-07T07:51:59.301Z,23.30
2019-06-07T07:54:28.816Z,23.40
2019-06-07T07:56:58.375Z,23.50
2019-06-07T07:59:41.770Z,23.50
2019-06-07T08:02:00.009Z,23.60
2019-06-07T08:05:13.031Z,23.60
2019-06-07T08:07:01.138Z,23.60
2019-06-07T08:09:31.579Z,23.60
2019-06-07T08:12:02.585Z,23.70
2019-06-07T08:14:32.301Z,23.80
2019-06-07T08:17:01.746Z,23.90
2019-06-07T08:19:31.201Z,23.90
2019-06-07T08:22:01.894Z,23.80
2019-06-07T08:24:31.598Z,24.00
2019-06-07T08:27:24.560Z,24.10
2019-06-07T08:29:44.434Z,24.20
2019-06-07T08:32:03.633Z,24.20
2019-06-07T08:34:33.092Z,24.30
2019-06-07T08:37:02.585Z,24.30
2019-06-07T08:39:32.116Z,24.20
2019-06-07T08:42:15.493Z,24.40
2019-06-07T08:44:32.953Z,24.60
2019-06-07T08:47:19.338Z,24.70
2019-06-07T08:49:33.629Z,24.80
2019-06-07T08:52:11.205Z,24.90
2019-06-07T08:54:34.462Z,25.10
2019-06-07T08:57:20.150Z,25.20
2019-06-07T08:59:35.273Z,25.20
2019-06-07T09:02:22.547Z,25.20
2019-06-07T09:04:36.126Z,25.50
2019-06-07T09:07:18.998Z,25.60
2019-06-07T09:09:37.237Z,26.50
2019-06-07T09:12:10.774Z,26.40
2019-06-07T09:14:58.807Z,27.00
2019-06-07T09:17:12.324Z,26.70
2019-06-07T09:19:40.401Z,26.40
2019-06-07T09:22:11.472Z,26.60
2019-06-07T09:24:41.487Z,26.40
2019-06-07T09:27:10.998Z,26.70
2019-06-07T09:29:41.159Z,27.30
2019-06-07T09:32:15.865Z,27.30
2019-06-07T09:34:42.013Z,27.60
2019-06-07T09:38:02.943Z,26.60
2019-06-07T09:39:42.916Z,27.20
2019-06-07T09:42:12.888Z,26.90
2019-06-07T09:44:42.501Z,26.60
2019-06-07T09:47:30.639Z,26.30
2019-06-07T09:49:43.399Z,26.40
2019-06-07T09:52:12.944Z,26.90
2019-06-07T09:55:06.197Z,27.00
2019-06-07T09:57:17.560Z,27.30
2019-06-07T09:59:46.819Z,27.20
2019-06-07T10:02:17.528Z,26.90
2019-06-07T10:04:46.960Z,27.40
2019-06-07T10:07:30.720Z,27.20
2019-06-07T10:12:19.323Z,27.60
2019-06-07T10:14:48.861Z,27.70
2019-06-07T10:17:18.417Z,27.40
2019-06-07T10:19:47.892Z,27.50
2019-06-07T10:22:17.456Z,27.90
2019-06-07T10:24:46.987Z,27.50
2019-06-07T10:27:16.524Z,27.50
2019-06-07T10:29:46.241Z,28.00
2019-06-07T10:32:15.723Z,27.80
2019-06-07T10:34:45.281Z,28.00
2019-06-07T10:37:15.852Z,27.90
2019-06-07T10:39:48.924Z,28.10
2019-06-07T10:42:16.867Z,28.30
2019-06-07T10:44:46.318Z,28.30
2019-06-07T10:47:15.837Z,28.60
2019-06-07T10:49:45.384Z,28.80
2019-06-07T10:52:14.912Z,28.90
2019-06-07T10:54:44.555Z,28.90
2019-06-07T10:57:16.029Z,27.90
2019-06-07T10:59:45.186Z,28.40
2019-06-07T11:02:14.914Z,28.40
2019-06-07T11:04:44.415Z,28.40
2019-06-07T11:07:14.480Z,28.50
2019-06-07T11:09:44.384Z,28.60
2019-06-07T11:12:15.353Z,28.80
2019-06-07T11:14:45.049Z,29.00
2019-06-07T11:17:15.793Z,29.00
2019-06-07T11:19:45.597Z,28.90
2019-06-07T11:22:15.219Z,28.90
2019-06-07T11:24:45.960Z,28.60
2019-06-07T11:27:16.292Z,28.80
2019-06-07T11:29:46.183Z,29.10
2019-06-07T11:32:15.865Z,29.10
2019-06-07T11:34:45.338Z,29.20
2019-06-07T11:37:16.194Z,28.90
2019-06-07T11:39:45.822Z,28.70
2019-06-07T11:42:15.380Z,28.70
2019-06-07T11:44:56.157Z,28.70
2019-06-07T11:47:16.122Z,28.90
2019-06-07T11:49:45.667Z,29.30
2019-06-07T11:52:15.755Z,29.30
2019-06-07T11:54:48.079Z,29.00
2019-06-07T11:57:17.348Z,28.90
2019-06-07T11:59:46.915Z,29.40
2019-06-07T12:02:17.620Z,29.70
2019-06-07T12:04:47.277Z,29.80
2019-06-07T12:07:17.634Z,29.60
2019-06-07T12:09:56.284Z,29.50
2019-06-07T12:12:20.480Z,29.80
2019-06-07T12:14:50.395Z,29.80
2019-06-07T12:17:20.047Z,29.80
2019-06-07T12:19:49.502Z,30.10
2019-06-07T12:22:21.389Z,30.50
2019-06-07T12:24:52.120Z,30.40
2019-06-07T12:27:22.362Z,29.80
2019-06-07T12:29:51.868Z,29.80
2019-06-07T12:32:23.425Z,29.30
2019-06-07T12:34:53.095Z,29.20
2019-06-07T12:37:28.489Z,29.40
2019-06-07T12:39:53.876Z,29.10
2019-06-07T12:42:23.405Z,28.70
2019-06-07T12:44:52.899Z,29.10
2019-06-07T12:47:23.249Z,29.60
2019-06-07T12:49:52.945Z,30.40
2019-06-07T12:52:23.414Z,30.80
2019-06-07T12:54:53.623Z,31.70
2019-06-07T12:57:24.143Z,32.70
2019-06-07T12:59:53.971Z,33.00
2019-06-07T13:02:24.073Z,32.60
2019-06-07T13:04:55.575Z,32.80
2019-06-07T13:07:25.148Z,32.90
2019-06-07T13:09:54.630Z,31.80
2019-06-07T13:12:24.074Z,31.40
2019-06-07T13:14:53.915Z,31.10
2019-06-07T13:17:42.451Z,30.60
2019-06-07T13:20:13.874Z,30.90
2019-06-07T13:22:43.675Z,31.00
2019-06-07T13:25:13.466Z,30.60
2019-06-07T13:27:42.969Z,30.70
2019-06-07T13:30:13.118Z,30.40
2019-06-07T13:32:42.652Z,30.00
2019-06-07T13:35:12.486Z,29.60
2019-06-07T13:37:42.066Z,29.60
2019-06-07T13:40:11.575Z,29.90
2019-06-07T13:42:41.151Z,30.00
2019-06-07T13:45:11.046Z,30.40
2019-06-07T13:47:40.608Z,30.40
2019-06-07T13:50:10.631Z,30.30
2019-06-07T13:52:41.975Z,30.20
2019-06-07T13:55:11.942Z,30.20
2019-06-07T13:57:41.362Z,31.20
2019-06-07T14:00:11.604Z,31.60
2019-06-07T14:02:41.351Z,32.50
2019-06-07T14:05:11.585Z,33.50
2019-06-07T14:07:41.198Z,34.20
2019-06-07T14:10:12.520Z,35.30
2019-06-07T14:12:42.245Z,35.40
2019-06-07T14:15:12.073Z,33.30
2019-06-07T14:17:41.601Z,32.80
2019-06-07T14:20:11.728Z,31.50
2019-06-07T14:22:41.290Z,30.60
2019-06-07T14:25:10.966Z,30.10
2019-06-07T14:27:40.421Z,29.80
2019-06-07T14:30:10.553Z,29.80
2019-06-07T14:32:40.083Z,29.30
2019-06-07T14:35:10.299Z,28.90
2019-06-07T14:37:39.846Z,28.80
2019-06-07T14:40:10.385Z,28.70
2019-06-07T14:42:40.096Z,28.80
2019-06-07T14:45:10.340Z,28.60
2019-06-07T14:47:40.017Z,28.30
2019-06-07T14:50:10.229Z,28.30
2019-06-07T14:52:39.818Z,28.30
2019-06-07T14:55:09.768Z,28.00
2019-06-07T14:57:39.820Z,28.10
2019-06-07T15:00:11.481Z,28.10
2019-06-07T15:02:41.126Z,28.30
2019-06-07T15:05:11.874Z,28.20
2019-06-07T15:07:41.420Z,28.30
2019-06-07T15:10:11.216Z,28.50
2019-06-07T15:12:42.518Z,28.40
2019-06-07T15:15:12.243Z,28.30
2019-06-07T15:17:42.651Z,27.90
2019-06-07T15:20:13.301Z,27.80
2019-06-07T15:22:42.878Z,27.50
2019-06-07T15:25:12.571Z,27.50
2019-06-07T15:27:42.062Z,27.50
2019-06-07T15:30:12.208Z,28.10
2019-06-07T15:32:41.688Z,29.40
2019-06-07T15:35:11.559Z,30.10
2019-06-07T15:37:41.064Z,30.80
2019-06-07T15:40:11.229Z,30.80
2019-06-07T15:42:51.949Z,31.20
2019-06-07T15:45:13.184Z,30.80
2019-06-07T15:47:42.770Z,30.60
2019-06-07T15:50:12.969Z,31.10
2019-06-07T15:52:43.296Z,31.40
2019-06-07T15:55:13.565Z,32.00
2019-06-07T15:57:43.181Z,32.00
2019-06-07T16:00:13.706Z,32.40
2019-06-07T16:02:43.489Z,32.60
2019-06-07T16:05:13.382Z,33.00
2019-06-07T16:07:43.712Z,33.60
2019-06-07T16:10:14.677Z,33.30
2019-06-07T16:12:59.148Z,33.60
2019-06-07T16:15:16.175Z,33.50
2019-06-07T16:17:45.866Z,31.60
2019-06-07T16:20:15.902Z,31.60
2019-06-07T16:22:46.222Z,30.40
2019-06-07T16:25:17.215Z,30.70
2019-06-07T16:27:46.756Z,29.90
2019-06-07T16:30:16.991Z,30.90
2019-06-07T16:32:46.494Z,30.30
2019-06-07T16:35:16.253Z,30.30
2019-06-07T16:37:49.667Z,30.70
2019-06-07T16:40:17.387Z,30.30
2019-06-07T16:42:49.154Z,30.20
2019-06-07T16:45:19.387Z,30.80
2019-06-07T16:47:49.731Z,30.40
2019-06-07T16:50:19.937Z,29.80
2019-06-07T16:52:49.641Z,29.60
2019-06-07T16:55:21.596Z,29.40
2019-06-07T16:57:51.248Z,29.30
2019-06-07T17:00:21.312Z,29.30
2019-06-07T17:02:50.877Z,29.80
2019-06-07T17:05:20.443Z,30.20
2019-06-07T17:07:50.114Z,29.80
2019-06-07T17:10:19.968Z,28.90
2019-06-07T17:12:49.571Z,28.90
2019-06-07T17:15:19.834Z,28.70
2019-06-07T17:17:49.934Z,27.70
2019-06-07T17:20:19.915Z,27.40
2019-06-07T17:22:49.827Z,27.30
2019-06-07T17:25:19.558Z,27.50
2019-06-07T17:27:50.214Z,27.50
2019-06-07T17:30:21.675Z,27.50
2019-06-07T17:32:58.651Z,27.30
2019-06-07T17:35:22.531Z,26.80
2019-06-07T17:37:52.227Z,26.70
2019-06-07T17:40:21.915Z,26.90
2019-06-07T17:42:51.556Z,27.30
2019-06-07T17:45:21.346Z,27.70
2019-06-07T17:47:52.254Z,27.90
2019-06-07T17:50:25.526Z,27.80
2019-06-07T17:52:55.163Z,27.70
2019-06-07T17:55:24.709Z,27.60
2019-06-07T17:57:54.323Z,27.60
2019-06-07T18:00:28.801Z,27.40
2019-06-07T18:02:55.840Z,27.30
2019-06-07T18:05:25.439Z,27.30
2019-06-07T18:07:57.477Z,27.10
2019-06-07T18:10:37.983Z,27.20
2019-06-07T18:13:07.738Z,27.30
2019-06-07T18:15:40.278Z,27.40
2019-06-07T18:18:10.774Z,27.70
2019-06-07T18:20:40.749Z,27.70
2019-06-07T18:23:11.027Z,27.80
2019-06-07T18:25:40.575Z,27.70
2019-06-07T18:28:10.053Z,27.60
2019-06-07T18:30:39.754Z,27.40
2019-06-07T18:33:09.240Z,27.30
2019-06-07T18:35:38.947Z,26.90
2019-06-07T18:38:10.925Z,26.60
2019-06-07T18:40:40.039Z,26.40
2019-06-07T18:43:09.713Z,26.30
2019-06-07T18:45:39.326Z,26.10
2019-06-07T18:48:08.933Z,25.80
2019-06-07T18:50:38.512Z,25.30
2019-06-07T18:53:08.047Z,25.30
2019-06-07T18:55:38.137Z,25.20
2019-06-07T18:58:07.663Z,24.80
2019-06-07T19:00:37.934Z,24.40
2019-06-07T19:03:07.645Z,24.20
2019-06-07T19:05:37.746Z,24.10
2019-06-07T19:08:07.352Z,23.90
2019-06-07T19:10:36.907Z,23.70
2019-06-07T19:13:09.188Z,23.60
2019-06-07T19:15:38.797Z,23.60
2019-06-07T19:18:08.412Z,23.60
2019-06-07T19:20:38.583Z,23.60
2019-06-07T19:23:08.472Z,23.60
2019-06-07T19:25:38.518Z,23.40
2019-06-07T19:28:08.273Z,23.30
2019-06-07T19:30:37.878Z,23.30
2019-06-07T19:33:08.314Z,23.30
2019-06-07T19:35:37.909Z,23.20
2019-06-07T19:38:07.755Z,23.10
2019-06-07T19:40:37.447Z,23.10
2019-06-07T19:43:07.985Z,23.00
2019-06-07T19:45:37.671Z,22.80
2019-06-07T19:48:09.655Z,22.70
2019-06-07T19:50:39.216Z,22.60
2019-06-07T19:53:08.955Z,22.50
2019-06-07T19:55:38.472Z,22.40
2019-06-07T19:58:08.287Z,22.40
2019-06-07T20:00:37.867Z,22.40
2019-06-07T20:03:07.806Z,22.40
2019-06-07T20:05:37.949Z,22.30
2019-06-07T20:08:07.706Z,22.30
2019-06-07T20:10:37.753Z,22.20
2019-06-07T20:13:09.894Z,22.20
2019-06-07T20:15:39.788Z,22.20
2019-06-07T20:18:09.722Z,22.20
2019-06-07T20:20:39.340Z,22.20
2019-06-07T20:23:09.370Z,22.20
2019-06-07T20:25:39.066Z,22.10
2019-06-07T20:28:09.418Z,22.20
2019-06-07T20:30:40.208Z,22.10
2019-06-07T20:33:09.743Z,22.10
2019-06-07T20:35:39.290Z,22.20
2019-06-07T20:38:09.543Z,22.10
2019-06-07T20:40:39.109Z,22.10
2019-06-07T20:43:08.681Z,22.10
2019-06-07T20:45:38.225Z,22.00
2019-06-07T20:48:08.466Z,22.10
2019-06-07T20:50:38.815Z,22.00
2019-06-07T20:53:09.167Z,21.90
2019-06-07T20:55:38.778Z,21.90
2019-06-07T20:58:09.421Z,21.80
2019-06-07T21:00:39.274Z,21.70
2019-06-07T21:03:09.662Z,21.60
2019-06-07T21:05:39.255Z,21.70
2019-06-07T21:08:12.882Z,21.70
2019-06-07T21:10:42.079Z,21.60
2019-06-07T21:13:11.815Z,21.50
2019-06-07T21:15:49.001Z,21.40
2019-06-07T21:18:19.428Z,21.40
2019-06-07T21:20:43.958Z,21.40
2019-06-07T21:23:13.437Z,21.40
2019-06-07T21:25:42.907Z,21.20
2019-06-07T21:28:12.431Z,21.10
2019-06-07T21:30:41.959Z,21.10
2019-06-07T21:33:14.276Z,21.10
2019-06-07T21:35:43.950Z,21.00
2019-06-07T21:38:13.495Z,20.90
2019-06-07T21:40:43.105Z,20.90
2019-06-07T21:43:12.846Z,21.00
2019-06-07T21:45:42.772Z,21.00
2019-06-07T21:48:14.212Z,20.90
2019-06-07T21:50:43.984Z,20.90
2019-06-07T21:53:13.557Z,20.80
2019-06-07T21:55:43.138Z,20.70
2019-06-07T21:58:13.561Z,20.70
2019-06-07T22:01:21.579Z,20.70
2019-06-07T22:03:51.021Z,20.70
2019-06-07T22:06:20.661Z,20.70
2019-06-07T22:08:50.151Z,20.60
2019-06-07T22:11:19.787Z,20.70
2019-06-07T22:13:49.319Z,20.60
2019-06-07T22:16:28.664Z,20.60
2019-06-07T22:18:49.987Z,20.60
2019-06-07T22:21:20.401Z,20.50
2019-06-07T22:23:49.854Z,20.50
2019-06-07T22:26:19.403Z,20.50
2019-06-07T22:28:48.975Z,20.60
2019-06-07T22:31:19.254Z,20.40
2019-06-07T22:33:48.989Z,20.30
2019-06-07T22:36:19.486Z,20.20
2019-06-07T22:38:49.077Z,20.20
2019-06-07T22:41:18.780Z,20.30
2019-06-07T22:43:48.282Z,20.20
2019-06-07T22:46:17.701Z,20.00
2019-06-07T22:48:47.218Z,20.00
2019-06-07T22:51:18.298Z,20.00
2019-06-07T22:53:48.010Z,19.90
2019-06-07T22:56:25.629Z,19.70
2019-06-07T22:58:55.090Z,19.60
2019-06-07T23:01:24.754Z,19.50
2019-06-07T23:03:54.238Z,19.60
2019-06-07T23:06:23.740Z,19.60
2019-06-07T23:08:53.240Z,19.70
2019-06-07T23:11:22.750Z,19.70
2019-06-07T23:13:52.227Z,19.60
2019-06-07T23:16:21.666Z,19.60
2019-06-07T23:18:51.065Z,19.60
2019-06-07T23:21:20.516Z,19.60
2019-06-07T23:23:49.998Z,19.60
2019-06-07T23:26:20.628Z,19.50
2019-06-07T23:28:50.394Z,19.50
2019-06-07T23:31:20.833Z,19.50
2019-06-07T23:33:50.514Z,19.40
2019-06-07T23:36:21.344Z,19.30
2019-06-07T23:38:50.990Z,19.30
2019-06-07T23:41:22.201Z,19.40
2019-06-07T23:43:51.883Z,19.40
2019-06-07T23:46:21.710Z,19.50
2019-06-07T23:48:51.323Z,19.50
2019-06-07T23:51:22.022Z,19.40
2019-06-07T23:53:51.592Z,19.30
2019-06-07T23:56:22.315Z,19.30
2019-06-07T23:58:51.963Z,19.20
